Time;durP1;ratioP1;P1;durP2;ratioP2;P2;SDS_P1;SDS_P2;PMS_P1;PMS_P2;Temp;Humidity;BMP_temperature;BMP_pressure;BME280_temperature;BME280_humidity;BME280_pressure;Samples;Min_cycle;Max_cycle;Signal;HPM_P1;HPM_P2
2022/05/16 00:00:13;;;;;;;6.75;3.58;;;;;;;17.08;60.75;100670.13;685653;28;1259;-79
2022/05/16 00:00:34;;;;;;;5.97;3.50;;;;;;;17.05;60.85;100671.09;686818;28;1370;-79
2022/05/16 00:00:54;;;;;;;5.28;3.28;;;;;;;17.04;59.82;100669.34;685158;28;1533;-79
2022/05/16 00:01:14;;;;;;;6.13;3.53;;;;;;;17.02;59.89;100661.50;683278;28;4352;-79
2022/05/16 00:01:35;;;;;;;7.20;3.50;;;;;;;17.09;59.57;100658.66;683191;28;1458;-79
2022/05/16 00:01:55;;;;;;;7.17;3.60;;;;;;;17.11;59.93;100654.19;684453;28;1333;-79
2022/05/16 00:02:15;;;;;;;7.00;3.50;;;;;;;17.06;60.12;100659.63;677368;29;1485;-79
2022/05/16 00:02:36;;;;;;;7.07;3.70;;;;;;;17.02;60.56;100661.50;677755;29;1564;-79
2022/05/16 00:03:01;;;;;;;7.10;3.78;;;;;;;17.00;60.00;100660.69;680220;28;1161;-79
2022/05/16 00:03:24;;;;;;;7.15;3.83;;;;;;;16.97;60.85;100657.25;680254;28;1799;-79
2022/05/16 00:03:44;;;;;;;7.40;3.70;;;;;;;16.94;60.62;100668.78;680183;28;1448;-79
2022/05/16 00:04:05;;;;;;;6.22;3.35;;;;;;;16.92;60.56;100656.53;680942;28;1157;-80
2022/05/16 00:04:25;;;;;;;6.50;3.70;;;;;;;16.92;60.29;100660.06;683048;28;4302;-79
2022/05/16 00:04:49;;;;;;;6.85;3.50;;;;;;;16.92;60.17;100660.06;682979;28;1597;-80
2022/05/16 00:05:10;;;;;;;7.93;3.60;;;;;;;17.01;60.48;100659.75;678780;29;1434;-79
2022/05/16 00:05:31;;;;;;;7.72;3.53;;;;;;;17.01;60.62;100654.47;683261;28;1804;-80
2022/05/16 00:05:51;;;;;;;7.00;3.60;;;;;;;17.05;60.72;100663.16;685829;28;1337;-80
2022/05/16 00:06:12;;;;;;;6.60;3.37;;;;;;;17.04;60.53;100657.94;684825;28;1256;-80
2022/05/16 00:06:32;;;;;;;7.43;3.88;;;;;;;17.02;59.74;100652.72;685201;28;1403;-80
2022/05/16 00:06:53;;;;;;;7.10;3.70;;;;;;;17.01;59.97;100651.81;684570;28;1277;-79
2022/05/16 00:07:13;;;;;;;7.00;3.30;;;;;;;16.98;60.38;100654.56;684859;28;1555;-78
2022/05/16 00:07:34;;;;;;;6.00;3.37;;;;;;;16.98;60.53;100653.72;684642;28;4210;-78
2022/05/16 00:07:54;;;;;;;6.60;3.40;;;;;;;16.94;60.71;100650.31;687541;28;1220;-78
2022/05/16 00:08:15;;;;;;;8.17;3.70;;;;;;;16.94;60.55;100642.38;685395;28;1453;-78
2022/05/16 00:08:35;;;;;;;8.00;3.78;;;;;;;17.02;59.99;100652.72;687827;28;1536;-77
2022/05/16 00:08:55;;;;;;;6.67;3.53;;;;;;;16.99;59.84;100645.75;687185;28;1275;-77
2022/05/16 00:09:16;;;;;;;6.88;3.22;;;;;;;16.99;61.25;100653.66;685049;28;1342;-77
2022/05/16 00:09:37;;;;;;;6.93;3.53;;;;;;;16.96;60.93;100651.13;681354;28;1387;-80
2022/05/16 00:09:57;;;;;;;6.17;3.60;;;;;;;16.92;61.35;100644.22;684458;28;1666;-77
2022/05/16 00:10:18;;;;;;;7.43;3.70;;;;;;;16.91;60.72;100653.03;681599;28;4494;-77
2022/05/16 00:10:38;;;;;;;6.87;3.80;;;;;;;16.92;59.63;100652.13;681031;28;1513;-78
2022/05/16 00:10:59;;;;;;;7.28;3.60;;;;;;;16.92;60.00;100654.78;679046;29;1255;-78
2022/05/16 00:11:19;;;;;;;6.90;3.87;;;;;;;16.90;60.43;100651.31;679240;29;1382;-77
2022/05/16 00:11:39;;;;;;;7.97;3.80;;;;;;;16.90;59.92;100655.72;679768;28;1184;-78
2022/05/16 00:12:00;;;;;;;7.88;3.70;;;;;;;16.88;59.90;100646.94;681526;28;1307;-78
2022/05/16 00:12:20;;;;;;;7.50;3.53;;;;;;;16.87;60.40;100640.81;681687;28;1234;-77
2022/05/16 00:12:41;;;;;;;8.00;3.90;;;;;;;16.87;60.40;100639.97;684467;28;1076;-77
2022/05/16 00:13:03;;;;;;;6.30;3.92;;;;;;;16.85;60.47;100640.88;685939;28;1439;-78
2022/05/16 00:13:25;;;;;;;6.13;3.80;;;;;;;16.86;60.31;100647.00;682036;28;4314;-78
2022/05/16 00:13:47;;;;;;;7.28;3.72;;;;;;;16.94;60.60;100650.31;680140;28;1535;-78
2022/05/16 00:14:08;;;;;;;5.55;3.63;;;;;;;16.92;60.90;100643.34;682361;28;1340;-78
2022/05/16 00:14:28;;;;;;;7.37;3.60;;;;;;;16.91;61.15;100650.41;684916;28;1579;-78
2022/05/16 00:14:48;;;;;;;6.07;3.42;;;;;;;16.89;60.68;100646.06;685523;28;1907;-79
2022/05/16 00:15:11;;;;;;;6.87;3.60;;;;;;;16.91;60.34;100647.75;689056;28;1648;-78
2022/05/16 00:15:31;;;;;;;9.70;4.22;;;;;;;16.88;60.75;100647.84;689255;28;1222;-78
2022/05/16 00:15:52;;;;;;;7.57;4.10;;;;;;;16.95;60.11;100648.53;689454;28;1349;-78
2022/05/16 00:16:13;;;;;;;7.00;3.65;;;;;;;16.98;59.86;100643.16;684760;28;1228;-78
2022/05/16 00:16:34;;;;;;;8.00;3.95;;;;;;;16.97;60.01;100646.69;686512;28;4326;-78
2022/05/16 00:16:56;;;;;;;7.60;3.90;;;;;;;16.96;59.98;100651.13;687079;28;3380;-78
2022/05/16 00:17:17;;;;;;;6.25;3.80;;;;;;;16.94;60.20;100645.03;684720;28;1545;-78
2022/05/16 00:17:39;;;;;;;7.35;3.70;;;;;;;16.94;60.46;100646.81;683813;28;959;-78
2022/05/16 00:17:59;;;;;;;6.28;3.65;;;;;;;16.93;60.72;100653.84;687901;28;1324;-78
2022/05/16 00:18:19;;;;;;;7.27;3.90;;;;;;;16.92;60.22;100649.50;687127;28;1100;-78
2022/05/16 00:18:42;;;;;;;6.90;4.00;;;;;;;16.92;60.10;100643.34;684467;28;1420;-78
2022/05/16 00:19:04;;;;;;;5.50;3.70;;;;;;;16.94;60.64;100644.16;679714;28;1356;-78
2022/05/16 00:19:28;;;;;;;6.75;3.60;;;;;;;16.96;60.91;100643.22;679239;28;4400;-78
2022/05/16 00:19:48;;;;;;;8.30;3.60;;;;;;;16.94;60.96;100645.03;679563;28;1615;-79
2022/05/16 00:20:09;;;;;;;7.90;3.88;;;;;;;16.92;60.58;100649.50;683051;28;1367;-78
2022/05/16 00:20:30;;;;;;;7.15;4.05;;;;;;;16.89;60.65;100649.59;682972;28;1343;-78
2022/05/16 00:20:50;;;;;;;7.13;3.80;;;;;;;16.87;60.81;100653.16;682971;28;1136;-78
2022/05/16 00:21:11;;;;;;;8.35;3.92;;;;;;;16.84;60.53;100646.19;686439;28;1781;-78
2022/05/16 00:21:32;;;;;;;6.67;3.87;;;;;;;16.85;60.24;100643.50;687389;28;1580;-78
2022/05/16 00:21:53;;;;;;;6.60;4.07;;;;;;;16.88;60.22;100646.94;685202;28;1783;-78
2022/05/16 00:22:13;;;;;;;7.40;3.90;;;;;;;16.86;60.79;100644.34;685452;28;1223;-78
2022/05/16 00:22:34;;;;;;;6.65;3.50;;;;;;;16.84;62.17;100651.47;681199;28;4274;-78
2022/05/16 00:22:54;;;;;;;7.25;3.50;;;;;;;16.81;62.02;100641.03;679434;28;1636;-78
2022/05/16 00:23:15;;;;;;;6.83;3.67;;;;;;;16.80;61.67;100647.22;683014;28;1520;-78
2022/05/16 00:23:36;;;;;;;7.70;3.87;;;;;;;16.78;61.78;100649.91;688047;28;1555;-78
2022/05/16 00:23:56;;;;;;;8.05;3.80;;;;;;;16.80;61.08;100641.94;690117;28;1452;-77
2022/05/16 00:24:18;;;;;;;8.63;3.90;;;;;;;16.82;61.58;100650.66;687892;28;1423;-78
2022/05/16 00:24:45;;;;;;;6.57;3.65;;;;;;;16.81;61.81;100659.50;682492;28;1716;-77
2022/05/16 00:25:09;;;;;;;7.03;3.47;;;;;;;16.82;62.86;100654.16;681895;28;1777;-78
2022/05/16 00:25:30;;;;;;;7.72;3.65;;;;;;;16.81;63.16;100646.31;678979;28;4432;-78
2022/05/16 00:25:50;;;;;;;7.20;3.70;;;;;;;16.83;62.29;100647.09;680550;28;1430;-78
2022/05/16 00:26:11;;;;;;;6.33;3.80;;;;;;;16.88;60.83;100653.13;680301;29;1473;-79
2022/05/16 00:26:34;;;;;;;7.10;3.90;;;;;;;16.88;60.84;100650.47;682408;28;1406;-78
2022/05/16 00:26:56;;;;;;;6.47;3.83;;;;;;;16.92;60.59;100644.22;684225;28;1360;-78
2022/05/16 00:27:16;;;;;;;6.60;3.70;;;;;;;16.92;60.34;100651.25;682055;28;1294;-78
2022/05/16 00:27:37;;;;;;;7.75;3.65;;;;;;;16.96;60.22;100652.88;682724;28;1598;-78
2022/05/16 00:27:58;;;;;;;7.13;3.72;;;;;;;16.97;59.97;100647.56;679842;28;1223;-78
2022/05/16 00:28:19;;;;;;;6.28;3.85;;;;;;;16.99;60.21;100656.31;679927;28;4313;-79
2022/05/16 00:28:39;;;;;;;6.70;3.90;;;;;;;17.02;59.67;100645.63;682910;28;1624;-78
2022/05/16 00:29:00;;;;;;;6.13;3.70;;;;;;;17.04;59.41;100655.28;682378;28;1286;-78
2022/05/16 00:29:21;;;;;;;5.85;3.53;;;;;;;17.04;59.59;100647.38;684254;28;1631;-78
2022/05/16 00:29:42;;;;;;;6.20;3.53;;;;;;;17.04;59.55;100652.66;680020;28;1814;-78
2022/05/16 00:30:05;;;;;;;7.77;3.80;;;;;;;17.06;59.61;100648.19;679995;28;1597;-78
2022/05/16 00:30:26;;;;;;;8.63;4.05;;;;;;;17.07;60.25;100655.19;680843;28;1637;-78
2022/05/16 00:30:46;;;;;;;6.82;3.70;;;;;;;17.06;60.25;100645.53;683678;28;1752;-78
2022/05/16 00:31:07;;;;;;;7.10;3.50;;;;;;;17.08;59.91;100654.28;686009;28;1618;-78
2022/05/16 00:31:27;;;;;;;5.90;3.57;;;;;;;17.05;60.76;100649.13;686873;28;4296;-79
2022/05/16 00:31:49;;;;;;;7.50;3.72;;;;;;;17.02;61.08;100643.00;683577;28;1445;-78
2022/05/16 00:32:10;;;;;;;7.75;3.90;;;;;;;17.02;60.22;100658.00;684111;28;1476;-78
2022/05/16 00:32:30;;;;;;;9.00;3.80;;;;;;;17.00;60.29;100650.13;684942;28;1365;-78
2022/05/16 00:32:51;;;;;;;6.95;3.65;;;;;;;16.98;60.41;100643.16;684472;28;1275;-78
2022/05/16 00:33:11;;;;;;;7.07;3.77;;;;;;;16.95;60.81;100649.41;680269;28;1341;-78
2022/05/16 00:33:32;;;;;;;6.85;3.50;;;;;;;16.92;61.33;100646.84;679910;28;1500;-78
2022/05/16 00:33:52;;;;;;;6.65;3.85;;;;;;;16.92;61.19;100648.63;682677;28;1349;-78
2022/05/16 00:34:13;;;;;;;7.30;3.90;;;;;;;16.89;61.17;100649.59;682124;28;1634;-78
2022/05/16 00:34:34;;;;;;;7.10;3.85;;;;;;;16.87;61.21;100648.72;687141;28;4319;-78
2022/05/16 00:34:54;;;;;;;6.85;3.67;;;;;;;16.89;60.62;100646.06;684375;28;1914;-78
2022/05/16 00:35:18;;;;;;;5.73;3.60;;;;;;;16.88;60.88;100637.28;684952;28;1241;-78
2022/05/16 00:35:38;;;;;;;7.55;3.65;;;;;;;16.89;60.76;100643.44;682324;28;1323;-78
2022/05/16 00:35:59;;;;;;;5.60;3.57;;;;;;;16.86;62.30;100644.34;682859;28;1343;-77
2022/05/16 00:36:20;;;;;;;6.82;3.58;;;;;;;16.84;61.99;100640.91;681670;28;1415;-78
2022/05/16 00:36:42;;;;;;;7.88;3.78;;;;;;;16.84;61.80;100640.91;683231;28;1444;-78
2022/05/16 00:37:03;;;;;;;7.28;3.63;;;;;;;16.82;61.33;100640.97;683530;28;1343;-78
2022/05/16 00:37:24;;;;;;;6.22;3.63;;;;;;;16.81;61.97;100643.66;686071;28;4417;-78
2022/05/16 00:37:44;;;;;;;6.53;3.33;;;;;;;16.79;62.99;100645.47;687761;28;1803;-78
2022/05/16 00:38:05;;;;;;;8.38;3.60;;;;;;;16.77;62.40;100634.97;685626;28;1588;-78
2022/05/16 00:38:25;;;;;;;8.30;3.70;;;;;;;16.75;62.47;100643.84;679925;28;1331;-79
2022/05/16 00:38:46;;;;;;;6.63;3.70;;;;;;;16.74;62.37;100642.09;682179;28;1467;-78
2022/05/16 00:39:06;;;;;;;6.82;3.47;;;;;;;16.69;62.06;100632.53;683407;28;1468;-78
2022/05/16 00:39:27;;;;;;;7.83;3.80;;;;;;;16.67;61.88;100647.56;679432;29;4881;-78
2022/05/16 00:39:47;;;;;;;7.47;3.70;;;;;;;16.65;61.99;100636.19;681652;28;1565;-78
2022/05/16 00:40:09;;;;;;;6.10;3.50;;;;;;;16.64;62.31;100652.06;682949;28;1636;-78
2022/05/16 00:40:30;;;;;;;6.78;3.60;;;;;;;16.63;62.67;100645.94;683442;28;4405;-79
2022/05/16 00:40:52;;;;;;;6.68;3.53;;;;;;;16.60;62.46;100642.53;680240;28;1570;-78
2022/05/16 00:41:12;;;;;;;7.75;3.80;;;;;;;16.59;61.90;100638.19;682017;28;1403;-78
2022/05/16 00:41:33;;;;;;;8.17;3.80;;;;;;;16.58;61.97;100642.56;685357;28;1826;-79
2022/05/16 00:41:53;;;;;;;8.05;3.80;;;;;;;16.59;62.00;100644.31;687925;28;1248;-78
2022/05/16 00:42:14;;;;;;;7.23;3.77;;;;;;;16.58;62.42;100639.94;687250;28;1291;-78
2022/05/16 00:42:34;;;;;;;6.22;3.63;;;;;;;16.58;62.06;100644.34;688027;28;1953;-78
2022/05/16 00:43:09;;;;;;;7.73;3.70;;;;;;;16.58;62.15;100639.94;686981;28;2426;-78
2022/05/16 00:43:44;;;;;;;7.68;3.90;;;;;;;16.57;62.19;100642.63;684299;28;4293;-78
2022/05/16 00:44:04;;;;;;;6.10;3.72;;;;;;;16.56;62.19;100639.13;686390;28;1829;-78
2022/05/16 00:44:26;;;;;;;7.10;3.67;;;;;;;16.57;62.12;100640.84;685788;28;1951;-78
2022/05/16 00:44:46;;;;;;;6.43;3.70;;;;;;;16.56;62.60;100644.41;687184;28;1636;-78
2022/05/16 00:45:09;;;;;;;6.43;3.87;;;;;;;16.53;64.18;100641.84;686876;28;1988;-78
2022/05/16 00:45:30;;;;;;;7.40;3.63;;;;;;;16.51;63.99;100636.59;685110;28;1694;-78
2022/05/16 00:45:51;;;;;;;7.90;3.80;;;;;;;16.49;63.36;100635.81;682866;28;1770;-78
2022/05/16 00:46:16;;;;;;;7.90;3.70;;;;;;;16.48;63.01;100639.34;684572;28;1247;-78
2022/05/16 00:46:37;;;;;;;5.38;3.58;;;;;;;16.46;64.55;100635.91;677518;29;4736;-78
2022/05/16 00:46:58;;;;;;;6.00;3.60;;;;;;;16.46;63.74;100632.38;677939;28;1607;-78
2022/05/16 00:47:18;;;;;;;6.97;3.70;;;;;;;16.44;63.66;100636.84;680675;28;1755;-78
2022/05/16 00:47:38;;;;;;;7.20;3.60;;;;;;;16.43;63.44;100635.13;679281;28;1725;-78
2022/05/16 00:47:59;;;;;;;6.63;3.60;;;;;;;16.42;63.37;100636.00;682958;28;1065;-78
2022/05/16 00:48:20;;;;;;;6.00;3.58;;;;;;;16.41;63.60;100629.88;685041;28;1490;-78
2022/05/16 00:48:40;;;;;;;6.67;3.77;;;;;;;16.42;63.60;100641.28;689612;28;1243;-78
2022/05/16 00:49:04;;;;;;;6.72;3.60;;;;;;;16.42;63.74;100630.75;687701;28;1285;-78
2022/05/16 00:49:28;;;;;;;7.35;4.05;;;;;;;16.38;64.71;100629.97;684369;28;4267;-78
2022/05/16 00:49:52;;;;;;;6.53;3.92;;;;;;;16.37;64.41;100630.03;684284;28;1604;-78
2022/05/16 00:50:12;;;;;;;7.03;3.75;;;;;;;16.36;64.85;100634.44;687066;28;1616;-78
2022/05/16 00:50:39;;;;;;;6.78;3.70;;;;;;;16.34;65.54;100636.25;690288;28;1577;-78
2022/05/16 00:51:01;;;;;;;7.30;3.75;;;;;;;16.32;64.97;100636.31;685039;28;1455;-78
2022/05/16 00:51:26;;;;;;;7.57;3.80;;;;;;;16.32;64.66;100633.66;687849;28;1405;-78
2022/05/16 00:51:52;;;;;;;6.80;3.60;;;;;;;16.32;64.60;100633.66;685312;28;1287;-78
2022/05/16 00:52:17;;;;;;;7.35;3.83;;;;;;;16.32;64.54;100632.78;685081;28;1407;-78
2022/05/16 00:52:45;;;;;;;7.65;3.80;;;;;;;16.30;64.29;100630.19;684433;28;4601;-78
2022/05/16 00:53:07;;;;;;;7.78;3.80;;;;;;;16.28;64.37;100632.03;685499;28;1111;-78
2022/05/16 00:53:29;;;;;;;7.05;3.58;;;;;;;16.26;64.55;100632.97;683710;28;1593;-78
2022/05/16 00:53:55;;;;;;;7.82;3.80;;;;;;;16.28;64.68;100636.41;687136;28;1169;-78
2022/05/16 00:54:20;;;;;;;6.53;3.75;;;;;;;16.27;65.12;100627.66;684676;28;1164;-78
2022/05/16 00:54:55;;;;;;;6.75;3.85;;;;;;;16.24;65.68;100633.03;684035;28;1910;-78
2022/05/16 00:55:22;;;;;;;7.55;3.92;;;;;;;16.25;64.21;100628.59;686673;28;4308;-78
2022/05/16 00:55:43;;;;;;;6.07;3.97;;;;;;;16.25;64.68;100628.59;686931;28;1606;-78
2022/05/16 00:56:05;;;;;;;8.07;4.00;;;;;;;16.26;64.11;100632.97;681622;28;1618;-78
2022/05/16 00:56:27;;;;;;;8.30;3.92;;;;;;;16.25;64.41;100634.72;682105;28;1432;-78
2022/05/16 00:56:51;;;;;;;6.85;3.70;;;;;;;16.25;64.41;100626.81;679637;28;1339;-78
2022/05/16 00:57:17;;;;;;;6.60;3.85;;;;;;;16.24;65.90;100635.66;680173;28;1430;-78
2022/05/16 00:57:44;;;;;;;7.32;4.03;;;;;;;16.24;65.34;100625.13;683218;28;1847;-78
2022/05/16 00:58:12;;;;;;;6.47;3.58;;;;;;;16.22;66.62;100631.34;685200;28;1334;-78
2022/05/16 00:58:37;;;;;;;6.55;3.67;;;;;;;16.21;66.53;100640.16;682026;28;4248;-78
2022/05/16 00:58:58;;;;;;;6.47;3.60;;;;;;;16.19;66.53;100650.75;684218;28;1200;-78
2022/05/16 00:59:20;;;;;;;7.28;3.60;;;;;;;16.17;66.40;100629.69;685211;28;1397;-78
2022/05/16 00:59:58;;;;;;;6.82;3.80;;;;;;;16.16;66.39;100624.47;688095;28;1365;-78
2022/05/16 01:00:29;;;;;;;6.68;3.80;;;;;;;16.24;65.67;100630.38;684210;28;1699;-78
2022/05/16 01:00:49;;;;;;;6.63;3.60;;;;;;;16.25;65.33;100634.72;683834;28;1584;-78
2022/05/16 01:04:49;;;;;;;7.18;3.80;;;;;;;16.11;65.36;100632.50;689100;28;4822;-78
2022/05/16 01:05:11;;;;;;;7.10;3.80;;;;;;;16.08;66.63;100627.31;689807;28;1350;-78
2022/05/16 01:05:32;;;;;;;8.07;3.80;;;;;;;16.06;66.35;100621.22;684946;28;1724;-78
2022/05/16 01:05:53;;;;;;;6.53;3.72;;;;;;;16.03;66.97;100625.72;684314;28;1749;-78
2022/05/16 01:06:13;;;;;;;6.00;3.80;;;;;;;16.00;66.46;100630.19;685116;28;1962;-78
2022/05/16 01:06:37;;;;;;;5.83;3.70;;;;;;;16.01;66.08;100623.13;682725;28;1374;-78
2022/05/16 01:06:59;;;;;;;7.57;3.83;;;;;;;15.99;65.99;100619.66;683519;28;1587;-79
2022/05/16 01:07:31;;;;;;;9.65;4.05;;;;;;;16.02;65.92;100634.53;681236;28;4323;-78
2022/05/16 01:07:58;;;;;;;7.00;3.70;;;;;;;16.00;66.31;100619.63;681199;28;1748;-78
2022/05/16 01:08:22;;;;;;;7.15;3.83;;;;;;;16.00;66.28;100626.66;682730;28;2094;-78
2022/05/16 01:08:45;;;;;;;7.40;3.80;;;;;;;15.98;66.30;100618.78;681115;28;1888;-78
2022/05/16 01:09:06;;;;;;;7.27;3.60;;;;;;;15.96;66.78;100623.25;676178;29;1569;-78
2022/05/16 01:09:26;;;;;;;7.47;3.70;;;;;;;15.94;66.16;100622.44;676767;29;1298;-78
2022/05/16 01:09:47;;;;;;;6.87;3.63;;;;;;;15.94;66.46;100625.06;677153;29;1613;-78
2022/05/16 01:10:10;;;;;;;6.77;3.70;;;;;;;15.94;66.65;100622.44;677028;28;1409;-78
2022/05/16 01:10:31;;;;;;;7.20;3.80;;;;;;;15.94;66.72;100625.06;679213;28;4418;-79
2022/05/16 01:10:53;;;;;;;6.63;3.80;;;;;;;15.93;67.01;100617.19;682196;28;1886;-78
2022/05/16 01:11:14;;;;;;;6.95;3.78;;;;;;;15.93;66.39;100623.31;682685;28;1349;-78
2022/05/16 01:11:38;;;;;;;9.07;3.90;;;;;;;15.92;67.75;100624.25;685774;28;2353;-78
2022/05/16 01:11:59;;;;;;;6.88;4.00;;;;;;;15.92;66.75;100618.97;681461;28;1447;-78
2022/05/16 01:12:28;;;;;;;6.50;3.80;;;;;;;15.88;66.72;100616.44;683052;28;1759;-78
2022/05/16 01:12:52;;;;;;;5.72;3.85;;;;;;;15.88;66.82;100627.00;683244;28;1393;-78
2022/05/16 01:13:13;;;;;;;6.50;3.72;;;;;;;15.87;67.63;100623.50;684792;28;3843;-78
2022/05/16 01:13:34;;;;;;;7.90;3.90;;;;;;;15.86;67.16;100621.78;682366;28;4294;-79
2022/05/16 01:13:54;;;;;;;7.03;3.85;;;;;;;15.86;67.57;100624.41;685216;28;1640;-78
2022/05/16 01:14:37;;;;;;;7.15;3.70;;;;;;;15.84;67.04;100615.69;685463;28;1440;-78
2022/05/16 01:15:00;;;;;;;7.65;3.78;;;;;;;15.83;66.57;100620.06;687627;28;1899;-78
2022/05/16 01:15:23;;;;;;;8.02;3.75;;;;;;;15.86;65.84;100624.41;686206;28;1607;-78
2022/05/16 01:15:48;;;;;;;7.53;3.83;;;;;;;15.86;66.75;100623.56;684991;28;1581;-78
2022/05/16 01:16:11;;;;;;;7.97;4.18;;;;;;;15.85;66.37;100624.44;681348;28;1417;-80
2022/05/16 01:16:32;;;;;;;7.47;4.00;;;;;;;15.83;67.02;100633.25;682213;28;4255;-78
2022/05/16 01:16:52;;;;;;;7.10;3.83;;;;;;;15.85;68.17;100627.09;679895;29;1549;-79
2022/05/16 01:17:13;;;;;;;6.73;3.80;;;;;;;15.84;67.51;100631.50;679244;29;1785;-78
2022/05/16 01:17:35;;;;;;;7.18;3.90;;;;;;;15.84;68.30;100626.22;680668;28;1908;-79
2022/05/16 01:17:55;;;;;;;7.72;4.10;;;;;;;15.81;69.07;100626.28;680181;28;1222;-78
2022/05/16 01:18:22;;;;;;;6.83;3.70;;;;;;;15.82;67.82;100628.91;679301;28;1511;-79
2022/05/16 01:18:42;;;;;;;8.10;3.80;;;;;;;15.83;66.97;100627.13;683547;28;1640;-78
2022/05/16 01:19:03;;;;;;;8.80;4.00;;;;;;;15.83;67.35;100627.97;682298;28;1767;-78
2022/05/16 01:19:23;;;;;;;8.63;4.30;;;;;;;15.84;67.40;100631.50;678701;28;4307;-79
2022/05/16 01:19:44;;;;;;;7.43;3.93;;;;;;;15.81;67.48;100621.91;679723;29;1371;-78
2022/05/16 01:20:07;;;;;;;7.03;4.22;;;;;;;15.80;67.13;100633.34;680284;29;1207;-78
2022/05/16 01:21:04;;;;;;;7.28;3.90;;;;;;;15.85;66.92;100616.53;680947;29;1399;-78
2022/05/16 01:21:38;;;;;;;7.50;3.90;;;;;;;15.82;67.77;100630.66;681468;28;1856;-79
2022/05/16 01:22:03;;;;;;;7.78;3.70;;;;;;;15.81;67.99;100626.28;682108;28;1289;-78
2022/05/16 01:22:29;;;;;;;6.93;3.80;;;;;;;15.80;67.55;100621.94;685529;28;4264;-78
2022/05/16 01:22:53;;;;;;;7.03;3.88;;;;;;;15.79;67.77;100618.44;683191;28;1261;-79
2022/05/16 01:23:16;;;;;;;5.77;3.50;;;;;;;15.80;67.32;100624.59;680640;28;1796;-79
2022/05/16 01:23:52;;;;;;;6.88;3.85;;;;;;;15.82;67.58;100620.13;682832;28;1810;-78
2022/05/16 01:24:16;;;;;;;8.48;4.03;;;;;;;15.80;67.14;100628.06;685104;28;1173;-78
2022/05/16 01:24:39;;;;;;;7.53;3.95;;;;;;;15.80;67.83;100614.03;684694;28;1582;-78
2022/05/16 01:25:16;;;;;;;6.50;3.85;;;;;;;15.80;67.12;100621.94;685517;28;1672;-78
2022/05/16 01:25:36;;;;;;;7.47;3.60;;;;;;;15.82;67.37;100634.19;687240;28;7258;-78
2022/05/16 01:25:59;;;;;;;8.00;3.70;;;;;;;15.84;67.24;100613.06;682054;28;1560;-78
2022/05/16 01:26:26;;;;;;;7.05;3.92;;;;;;;15.83;66.73;100613.94;685578;28;1374;-79
2022/05/16 01:26:47;;;;;;;7.47;4.05;;;;;;;15.85;66.85;100612.13;684757;28;1191;-78
2022/05/16 01:27:07;;;;;;;7.40;4.07;;;;;;;15.85;66.65;100617.41;682029;28;1361;-79
2022/05/16 01:27:27;;;;;;;6.38;3.92;;;;;;;15.86;66.34;100624.41;682857;28;1360;-78
2022/05/16 01:27:55;;;;;;;6.83;4.00;;;;;;;15.84;66.54;100618.31;678618;29;1598;-78
2022/05/16 01:28:21;;;;;;;6.63;3.70;;;;;;;15.84;67.37;100615.69;682272;28;4490;-78
2022/05/16 01:28:42;;;;;;;6.53;3.58;;;;;;;15.82;67.19;100615.75;684464;28;1394;-78
2022/05/16 01:29:04;;;;;;;6.87;3.70;;;;;;;15.80;67.22;100622.81;683182;28;1146;-78
2022/05/16 01:29:24;;;;;;;7.75;4.15;;;;;;;15.79;66.95;100623.69;678225;29;1601;-78
2022/05/16 01:29:45;;;;;;;7.57;3.93;;;;;;;15.82;66.85;100612.22;680051;29;1516;-80
2022/05/16 01:30:06;;;;;;;8.05;4.00;;;;;;;15.82;67.04;100612.22;677162;29;1392;-79
2022/05/16 01:30:34;;;;;;;6.75;3.58;;;;;;;15.82;67.09;100621.00;677707;29;1402;-78
2022/05/16 01:30:54;;;;;;;6.25;3.65;;;;;;;15.81;67.07;100618.38;677048;29;1905;-78
2022/05/16 01:31:15;;;;;;;6.88;4.25;;;;;;;15.81;67.05;100611.38;677690;28;4354;-79
2022/05/16 01:31:36;;;;;;;8.40;4.20;;;;;;;15.81;67.12;100621.91;680145;28;1687;-78
2022/05/16 01:31:56;;;;;;;7.55;3.85;;;;;;;15.80;67.06;100625.44;681626;28;1340;-78
2022/05/16 01:32:18;;;;;;;7.75;4.00;;;;;;;15.81;66.69;100615.75;680333;28;1639;-78
2022/05/16 01:32:38;;;;;;;7.22;3.90;;;;;;;15.81;66.85;100610.47;680104;28;1457;-78
2022/05/16 01:32:59;;;;;;;6.53;3.75;;;;;;;15.79;67.10;100621.06;680476;28;1421;-78
2022/05/16 01:33:22;;;;;;;7.83;3.87;;;;;;;15.78;67.12;100615.81;679955;29;1269;-78
2022/05/16 01:33:43;;;;;;;8.23;4.07;;;;;;;15.78;66.70;100615.81;679512;28;1738;-78
2022/05/16 01:34:06;;;;;;;5.90;3.87;;;;;;;15.78;67.15;100621.06;680006;28;1618;-78
2022/05/16 01:34:26;;;;;;;7.80;4.00;;;;;;;15.77;67.29;100621.97;677907;28;4339;-78
2022/05/16 01:34:48;;;;;;;7.38;3.78;;;;;;;15.77;67.12;100629.88;681969;28;1953;-79
2022/05/16 01:35:09;;;;;;;8.10;4.10;;;;;;;15.75;67.01;100608.84;685243;28;1037;-79
2022/05/16 01:35:31;;;;;;;6.20;3.87;;;;;;;15.74;67.64;100628.22;684936;28;1594;-78
2022/05/16 01:35:52;;;;;;;6.75;3.80;;;;;;;15.75;67.28;100619.38;684910;28;1604;-79
2022/05/16 01:36:15;;;;;;;7.50;3.75;;;;;;;15.76;67.09;100615.00;683731;28;1710;-79
2022/05/16 01:36:37;;;;;;;6.65;3.90;;;;;;;15.75;67.38;100623.81;680367;28;1264;-78
2022/05/16 01:36:57;;;;;;;7.55;4.05;;;;;;;15.73;67.46;100618.56;681391;28;1553;-79
2022/05/16 01:37:18;;;;;;;8.23;3.90;;;;;;;15.73;67.46;100620.31;680293;28;4343;-79
2022/05/16 01:38:21;;;;;;;7.45;3.92;;;;;;;15.71;67.81;100614.25;685643;28;1376;-78
2022/05/16 01:38:42;;;;;;;7.15;4.10;;;;;;;15.71;68.67;100619.53;686358;28;1775;-78
2022/05/16 01:39:03;;;;;;;8.13;3.90;;;;;;;15.70;67.59;100621.31;684778;28;1782;-79
2022/05/16 01:39:23;;;;;;;8.20;3.78;;;;;;;15.68;67.57;100631.00;683474;28;4955;-78
2022/05/16 01:39:44;;;;;;;7.50;3.87;;;;;;;15.69;68.12;100616.03;684979;28;1469;-79
2022/05/16 01:40:05;;;;;;;7.30;4.07;;;;;;;15.69;67.63;100621.31;685472;28;2099;-79
2022/05/16 01:40:26;;;;;;;6.68;3.97;;;;;;;15.69;67.50;100629.22;683962;28;4326;-78
2022/05/16 01:40:51;;;;;;;7.57;3.80;;;;;;;15.68;67.21;100620.47;683617;28;1553;-78
2022/05/16 01:41:21;;;;;;;6.72;3.80;;;;;;;15.70;67.32;100623.06;683031;28;1400;-78
2022/05/16 01:41:41;;;;;;;7.55;4.10;;;;;;;15.68;67.63;100617.81;684615;28;1806;-78
2022/05/16 01:42:02;;;;;;;8.07;4.32;;;;;;;15.69;68.62;100621.31;680153;29;1733;-79
2022/05/16 01:42:22;;;;;;;7.07;4.17;;;;;;;15.69;69.10;100618.69;680491;29;1841;-78
2022/05/16 01:42:43;;;;;;;7.20;3.90;;;;;;;15.69;68.19;100622.19;679982;28;1150;-78
2022/05/16 01:43:05;;;;;;;7.03;3.83;;;;;;;15.69;68.24;100618.69;682023;28;1600;-78
2022/05/16 01:43:28;;;;;;;7.63;3.80;;;;;;;15.69;68.30;100618.69;682915;28;4278;-78
2022/05/16 01:43:57;;;;;;;7.30;3.92;;;;;;;15.70;67.86;100612.50;684987;28;1327;-79
2022/05/16 01:44:17;;;;;;;6.35;3.72;;;;;;;15.70;67.25;100620.41;679592;28;1494;-78
2022/05/16 01:44:37;;;;;;;6.57;3.80;;;;;;;15.68;67.67;100619.63;680001;29;1629;-78
2022/05/16 01:44:58;;;;;;;7.23;4.00;;;;;;;15.68;67.92;100616.97;679491;28;1543;-78
2022/05/16 01:45:18;;;;;;;7.17;4.00;;;;;;;15.65;68.11;100616.13;679079;29;1447;-78
2022/05/16 01:45:44;;;;;;;7.50;4.05;;;;;;;15.64;68.36;100618.81;677599;29;1680;-78
2022/05/16 01:46:06;;;;;;;7.20;3.92;;;;;;;15.62;68.97;100616.22;679048;28;1464;-78
2022/05/16 01:46:39;;;;;;;7.43;3.85;;;;;;;15.63;68.85;100617.06;682169;28;4332;-78
2022/05/16 01:47:00;;;;;;;7.60;3.88;;;;;;;15.62;68.67;100618.00;680228;28;1493;-78
2022/05/16 01:47:20;;;;;;;7.88;3.95;;;;;;;15.59;69.22;100618.94;679783;28;1463;-78
2022/05/16 01:47:42;;;;;;;7.22;4.03;;;;;;;15.60;68.94;100618.06;679569;28;1861;-78
2022/05/16 01:48:03;;;;;;;7.07;3.63;;;;;;;15.60;68.84;100612.78;678744;28;1528;-78
2022/05/16 01:48:23;;;;;;;7.07;3.97;;;;;;;15.59;68.55;100616.31;680838;28;1639;-78
2022/05/16 01:48:44;;;;;;;8.73;4.05;;;;;;;15.60;68.79;100614.53;687009;28;1645;-78
2022/05/16 01:49:06;;;;;;;8.52;3.95;;;;;;;15.57;69.11;100612.84;686746;28;1769;-78
2022/05/16 01:49:27;;;;;;;7.32;4.03;;;;;;;15.58;68.63;100617.22;685913;28;4585;-78
2022/05/16 01:49:47;;;;;;;7.27;4.17;;;;;;;15.57;68.71;100615.47;683225;28;1433;-78
2022/05/16 01:50:09;;;;;;;7.40;3.90;;;;;;;15.57;68.82;100619.88;682928;28;1023;-78
2022/05/16 01:50:30;;;;;;;6.97;3.78;;;;;;;15.53;69.25;100620.88;683991;28;1338;-78
2022/05/16 01:50:56;;;;;;;5.97;3.77;;;;;;;15.52;69.32;100614.75;688113;28;1342;-79